sensor_id;sensor_type;location;lat;lon;timestamp;temperature;humidity
67133;HTU21D;54052;53.542;49.408;2023-02-28T00:00:50;-0.60;70.10
67133;HTU21D;54052;53.542;49.408;2023-02-28T00:03:17;-0.65;69.39
67133;HTU21D;54052;53.542;49.408;2023-02-28T00:05:43;-0.76;70.24
67133;HTU21D;54052;53.542;49.408;2023-02-28T00:08:09;-0.81;70.47
67133;HTU21D;54052;53.542;49.408;2023-02-28T00:10:35;-0.75;70.60
67133;HTU21D;54052;53.542;49.408;2023-02-28T00:13:05;-0.68;70.43
67133;HTU21D;54052;53.542;49.408;2023-02-28T00:15:32;-0.69;70.38
67133;HTU21D;54052;53.542;49.408;2023-02-28T00:17:58;-0.74;70.58
67133;HTU21D;54052;53.542;49.408;2023-02-28T00:20:25;-0.68;71.37
67133;HTU21D;54052;53.542;49.408;2023-02-28T00:22:52;-0.71;70.04
67133;HTU21D;54052;53.542;49.408;2023-02-28T00:25:22;-0.68;71.32
67133;HTU21D;54052;53.542;49.408;2023-02-28T00:27:48;-0.74;70.29
67133;HTU21D;54052;53.542;49.408;2023-02-28T00:30:20;-0.75;70.27
67133;HTU21D;54052;53.542;49.408;2023-02-28T00:32:47;-0.76;71.20
67133;HTU21D;54052;53.542;49.408;2023-02-28T00:35:14;-0.79;71.59
67133;HTU21D;54052;53.542;49.408;2023-02-28T00:37:41;-0.77;71.51
67133;HTU21D;54052;53.542;49.408;2023-02-28T00:40:10;-0.73;71.15
67133;HTU21D;54052;53.542;49.408;2023-02-28T00:42:37;-0.70;70.67
67133;HTU21D;54052;53.542;49.408;2023-02-28T00:45:04;-0.68;71.00
67133;HTU21D;54052;53.542;49.408;2023-02-28T00:47:31;-0.64;69.47
67133;HTU21D;54052;53.542;49.408;2023-02-28T00:49:57;-0.60;70.11
67133;HTU21D;54052;53.542;49.408;2023-02-28T00:52:25;-0.61;69.45
67133;HTU21D;54052;53.542;49.408;2023-02-28T00:54:51;-0.61;70.36
67133;HTU21D;54052;53.542;49.408;2023-02-28T00:57:17;-0.60;70.21
67133;HTU21D;54052;53.542;49.408;2023-02-28T00:59:43;-0.65;70.16
67133;HTU21D;54052;53.542;49.408;2023-02-28T01:02:09;-0.70;70.32
67133;HTU21D;54052;53.542;49.408;2023-02-28T01:04:35;-0.73;70.63
67133;HTU21D;54052;53.542;49.408;2023-02-28T01:07:01;-0.61;70.06
67133;HTU21D;54052;53.542;49.408;2023-02-28T01:09:27;-0.66;69.74
67133;HTU21D;54052;53.542;49.408;2023-02-28T01:11:53;-0.69;69.52
67133;HTU21D;54052;53.542;49.408;2023-02-28T01:14:19;-0.70;69.71
67133;HTU21D;54052;53.542;49.408;2023-02-28T01:16:46;-0.74;69.83
67133;HTU21D;54052;53.542;49.408;2023-02-28T01:19:12;-0.79;71.03
67133;HTU21D;54052;53.542;49.408;2023-02-28T01:21:38;-0.82;71.36
67133;HTU21D;54052;53.542;49.408;2023-02-28T01:24:04;-0.84;71.19
67133;HTU21D;54052;53.542;49.408;2023-02-28T01:26:31;-0.77;71.56
67133;HTU21D;54052;53.542;49.408;2023-02-28T01:28:57;-0.73;72.01
67133;HTU21D;54052;53.542;49.408;2023-02-28T01:31:24;-0.66;70.72
67133;HTU21D;54052;53.542;49.408;2023-02-28T01:33:50;-0.62;69.28
67133;HTU21D;54052;53.542;49.408;2023-02-28T01:36:19;-0.60;70.65
67133;HTU21D;54052;53.542;49.408;2023-02-28T01:38:45;-0.62;70.20
67133;HTU21D;54052;53.542;49.408;2023-02-28T01:41:27;-0.56;70.26
67133;HTU21D;54052;53.542;49.408;2023-02-28T01:46:22;-0.43;69.91
67133;HTU21D;54052;53.542;49.408;2023-02-28T01:48:53;-0.41;69.78
67133;HTU21D;54052;53.542;49.408;2023-02-28T01:51:26;-0.39;68.41
67133;HTU21D;54052;53.542;49.408;2023-02-28T01:54:03;-0.47;68.29
67133;HTU21D;54052;53.542;49.408;2023-02-28T01:56:33;-0.50;67.99
67133;HTU21D;54052;53.542;49.408;2023-02-28T01:59:01;-0.46;68.94
67133;HTU21D;54052;53.542;49.408;2023-02-28T02:01:28;-0.52;68.83
67133;HTU21D;54052;53.542;49.408;2023-02-28T02:03:57;-0.54;68.20
67133;HTU21D;54052;53.542;49.408;2023-02-28T02:06:44;-0.55;68.58
67133;HTU21D;54052;53.542;49.408;2023-02-28T02:09:12;-0.62;70.00
67133;HTU21D;54052;53.542;49.408;2023-02-28T02:11:41;-0.59;70.13
67133;HTU21D;54052;53.542;49.408;2023-02-28T02:25:02;-0.81;68.40
67133;HTU21D;54052;53.542;49.408;2023-02-28T02:33:45;-0.73;65.37
67133;HTU21D;54052;53.542;49.408;2023-02-28T02:41:52;-0.72;66.40
67133;HTU21D;54052;53.542;49.408;2023-02-28T02:44:43;-0.94;66.77
67133;HTU21D;54052;53.542;49.408;2023-02-28T02:47:16;-0.91;67.16
67133;HTU21D;54052;53.542;49.408;2023-02-28T02:49:48;-0.88;67.27
67133;HTU21D;54052;53.542;49.408;2023-02-28T02:52:19;-0.96;67.39
67133;HTU21D;54052;53.542;49.408;2023-02-28T02:54:48;-0.96;68.10
67133;HTU21D;54052;53.542;49.408;2023-02-28T02:57:43;-1.10;68.41
67133;HTU21D;54052;53.542;49.408;2023-02-28T03:00:11;-1.17;68.87
67133;HTU21D;54052;53.542;49.408;2023-02-28T03:02:40;-1.24;68.79
67133;HTU21D;54052;53.542;49.408;2023-02-28T03:05:14;-1.31;68.99
67133;HTU21D;54052;53.542;49.408;2023-02-28T03:07:42;-1.20;68.25
67133;HTU21D;54052;53.542;49.408;2023-02-28T03:10:27;-1.16;69.24
67133;HTU21D;54052;53.542;49.408;2023-02-28T03:13:12;-1.26;69.40
67133;HTU21D;54052;53.542;49.408;2023-02-28T03:15:58;-1.30;69.63
67133;HTU21D;54052;53.542;49.408;2023-02-28T03:18:36;-1.30;69.20
67133;HTU21D;54052;53.542;49.408;2023-02-28T03:21:34;-1.26;70.10
67133;HTU21D;54052;53.542;49.408;2023-02-28T03:24:27;-1.18;68.68
67133;HTU21D;54052;53.542;49.408;2023-02-28T03:27:04;-1.23;69.71
67133;HTU21D;54052;53.542;49.408;2023-02-28T03:29:35;-1.18;69.06
67133;HTU21D;54052;53.542;49.408;2023-02-28T03:32:17;-1.21;69.64
67133;HTU21D;54052;53.542;49.408;2023-02-28T03:34:56;-1.29;70.16
67133;HTU21D;54052;53.542;49.408;2023-02-28T03:37:26;-1.24;69.40
67133;HTU21D;54052;53.542;49.408;2023-02-28T03:40:11;-1.16;69.27
67133;HTU21D;54052;53.542;49.408;2023-02-28T03:42:39;-1.24;69.56
67133;HTU21D;54052;53.542;49.408;2023-02-28T03:45:11;-1.29;69.94
67133;HTU21D;54052;53.542;49.408;2023-02-28T03:50:29;-1.24;69.19
67133;HTU21D;54052;53.542;49.408;2023-02-28T03:55:58;-1.25;69.62
67133;HTU21D;54052;53.542;49.408;2023-02-28T03:59:05;-1.27;69.72
67133;HTU21D;54052;53.542;49.408;2023-02-28T04:01:44;-1.31;71.26
67133;HTU21D;54052;53.542;49.408;2023-02-28T04:04:11;-1.44;72.03
67133;HTU21D;54052;53.542;49.408;2023-02-28T04:06:38;-1.55;72.90
67133;HTU21D;54052;53.542;49.408;2023-02-28T04:09:07;-1.58;74.40
67133;HTU21D;54052;53.542;49.408;2023-02-28T04:11:39;-1.56;73.04
67133;HTU21D;54052;53.542;49.408;2023-02-28T04:14:07;-1.54;73.20
67133;HTU21D;54052;53.542;49.408;2023-02-28T04:16:35;-1.58;72.78
67133;HTU21D;54052;53.542;49.408;2023-02-28T04:19:06;-1.63;74.17
67133;HTU21D;54052;53.542;49.408;2023-02-28T04:21:42;-1.53;74.26
67133;HTU21D;54052;53.542;49.408;2023-02-28T04:24:11;-1.30;73.33
67133;HTU21D;54052;53.542;49.408;2023-02-28T04:26:41;-1.14;72.90
67133;HTU21D;54052;53.542;49.408;2023-02-28T04:29:10;-1.04;72.19
67133;HTU21D;54052;53.542;49.408;2023-02-28T04:31:37;-1.05;72.03
67133;HTU21D;54052;53.542;49.408;2023-02-28T04:34:03;-1.19;71.58
67133;HTU21D;54052;53.542;49.408;2023-02-28T04:36:29;-1.45;72.14
67133;HTU21D;54052;53.542;49.408;2023-02-28T04:38:55;-1.54;72.64
67133;HTU21D;54052;53.542;49.408;2023-02-28T04:41:22;-1.52;71.52
67133;HTU21D;54052;53.542;49.408;2023-02-28T04:43:48;-1.64;71.67
67133;HTU21D;54052;53.542;49.408;2023-02-28T04:46:14;-1.74;72.61
67133;HTU21D;54052;53.542;49.408;2023-02-28T04:48:41;-1.67;70.91
67133;HTU21D;54052;53.542;49.408;2023-02-28T04:51:10;-1.67;71.58
67133;HTU21D;54052;53.542;49.408;2023-02-28T04:53:37;-1.75;71.38
67133;HTU21D;54052;53.542;49.408;2023-02-28T04:56:05;-1.72;71.42
67133;HTU21D;54052;53.542;49.408;2023-02-28T04:58:32;-1.72;71.69
67133;HTU21D;54052;53.542;49.408;2023-02-28T05:01:16;-1.71;71.02
67133;HTU21D;54052;53.542;49.408;2023-02-28T05:03:43;-1.69;70.02
67133;HTU21D;54052;53.542;49.408;2023-02-28T05:06:11;-1.64;70.51
67133;HTU21D;54052;53.542;49.408;2023-02-28T05:08:38;-1.42;70.13
67133;HTU21D;54052;53.542;49.408;2023-02-28T05:11:05;-1.34;69.90
67133;HTU21D;54052;53.542;49.408;2023-02-28T05:13:31;-1.29;69.48
67133;HTU21D;54052;53.542;49.408;2023-02-28T05:15:57;-1.35;69.13
67133;HTU21D;54052;53.542;49.408;2023-02-28T05:18:23;-1.45;69.93
67133;HTU21D;54052;53.542;49.408;2023-02-28T05:20:49;-1.47;69.57
67133;HTU21D;54052;53.542;49.408;2023-02-28T05:23:16;-1.49;69.59
67133;HTU21D;54052;53.542;49.408;2023-02-28T05:25:43;-1.34;69.22
67133;HTU21D;54052;53.542;49.408;2023-02-28T05:28:09;-1.41;69.65
67133;HTU21D;54052;53.542;49.408;2023-02-28T05:30:35;-1.54;70.32
67133;HTU21D;54052;53.542;49.408;2023-02-28T05:33:01;-1.60;71.18
67133;HTU21D;54052;53.542;49.408;2023-02-28T05:35:27;-1.46;71.29
67133;HTU21D;54052;53.542;49.408;2023-02-28T05:37:53;-1.29;68.67
67133;HTU21D;54052;53.542;49.408;2023-02-28T05:40:19;-1.29;66.59
67133;HTU21D;54052;53.542;49.408;2023-02-28T05:42:46;-1.16;67.15
67133;HTU21D;54052;53.542;49.408;2023-02-28T05:45:13;-1.15;66.81
67133;HTU21D;54052;53.542;49.408;2023-02-28T05:47:42;-1.20;67.11
67133;HTU21D;54052;53.542;49.408;2023-02-28T05:50:08;-1.05;66.62
67133;HTU21D;54052;53.542;49.408;2023-02-28T05:52:36;-1.05;67.06
67133;HTU21D;54052;53.542;49.408;2023-02-28T05:55:03;-1.26;67.81
67133;HTU21D;54052;53.542;49.408;2023-02-28T05:57:29;-1.18;67.95
67133;HTU21D;54052;53.542;49.408;2023-02-28T05:59:55;-1.08;67.20
67133;HTU21D;54052;53.542;49.408;2023-02-28T06:02:21;-1.01;66.14
67133;HTU21D;54052;53.542;49.408;2023-02-28T06:04:47;-0.86;65.80
67133;HTU21D;54052;53.542;49.408;2023-02-28T06:07:13;-0.90;65.72
67133;HTU21D;54052;53.542;49.408;2023-02-28T06:09:40;-0.93;66.77
67133;HTU21D;54052;53.542;49.408;2023-02-28T06:12:07;-0.90;66.18
67133;HTU21D;54052;53.542;49.408;2023-02-28T06:14:35;-0.77;66.20
67133;HTU21D;54052;53.542;49.408;2023-02-28T06:17:02;-0.52;64.51
67133;HTU21D;54052;53.542;49.408;2023-02-28T06:19:29;-0.59;65.11
67133;HTU21D;54052;53.542;49.408;2023-02-28T06:21:56;-0.58;65.20
67133;HTU21D;54052;53.542;49.408;2023-02-28T06:24:24;-0.53;64.76
67133;HTU21D;54052;53.542;49.408;2023-02-28T06:26:50;-0.35;64.61
67133;HTU21D;54052;53.542;49.408;2023-02-28T06:29:17;-0.44;63.62
67133;HTU21D;54052;53.542;49.408;2023-02-28T06:31:47;-0.28;64.07
67133;HTU21D;54052;53.542;49.408;2023-02-28T06:34:13;0.03;62.98
67133;HTU21D;54052;53.542;49.408;2023-02-28T06:36:41;0.14;63.21
67133;HTU21D;54052;53.542;49.408;2023-02-28T06:39:08;0.17;62.97
67133;HTU21D;54052;53.542;49.408;2023-02-28T06:41:34;0.20;60.12
67133;HTU21D;54052;53.542;49.408;2023-02-28T06:44:15;0.14;63.08
67133;HTU21D;54052;53.542;49.408;2023-02-28T06:46:43;0.07;62.67
67133;HTU21D;54052;53.542;49.408;2023-02-28T06:49:10;0.43;63.27
67133;HTU21D;54052;53.542;49.408;2023-02-28T06:51:40;0.73;60.68
67133;HTU21D;54052;53.542;49.408;2023-02-28T06:54:07;0.59;62.32
67133;HTU21D;54052;53.542;49.408;2023-02-28T06:56:37;0.67;61.55
67133;HTU21D;54052;53.542;49.408;2023-02-28T06:59:03;0.35;62.98
67133;HTU21D;54052;53.542;49.408;2023-02-28T07:01:30;0.31;63.27
67133;HTU21D;54052;53.542;49.408;2023-02-28T07:03:59;0.29;63.53
67133;HTU21D;54052;53.542;49.408;2023-02-28T07:06:25;0.37;63.04
67133;HTU21D;54052;53.542;49.408;2023-02-28T07:08:52;0.55;63.48
67133;HTU21D;54052;53.542;49.408;2023-02-28T07:11:20;0.53;62.04
67133;HTU21D;54052;53.542;49.408;2023-02-28T07:13:49;0.28;62.15
67133;HTU21D;54052;53.542;49.408;2023-02-28T07:16:16;0.15;62.58
67133;HTU21D;54052;53.542;49.408;2023-02-28T07:18:42;0.25;63.20
67133;HTU21D;54052;53.542;49.408;2023-02-28T07:21:09;0.61;62.34
67133;HTU21D;54052;53.542;49.408;2023-02-28T07:23:36;0.77;60.92
67133;HTU21D;54052;53.542;49.408;2023-02-28T07:26:04;0.55;61.15
67133;HTU21D;54052;53.542;49.408;2023-02-28T07:28:31;0.53;60.57
67133;HTU21D;54052;53.542;49.408;2023-02-28T07:30:57;0.77;61.29
67133;HTU21D;54052;53.542;49.408;2023-02-28T07:33:28;0.74;61.48
67133;HTU21D;54052;53.542;49.408;2023-02-28T07:36:00;0.87;60.99
67133;HTU21D;54052;53.542;49.408;2023-02-28T07:38:26;0.86;59.65
67133;HTU21D;54052;53.542;49.408;2023-02-28T07:40:53;1.13;61.53
67133;HTU21D;54052;53.542;49.408;2023-02-28T07:43:19;1.26;60.41
67133;HTU21D;54052;53.542;49.408;2023-02-28T07:45:45;1.43;59.40
67133;HTU21D;54052;53.542;49.408;2023-02-28T07:48:11;1.25;61.25
67133;HTU21D;54052;53.542;49.408;2023-02-28T07:50:37;1.24;60.06
67133;HTU21D;54052;53.542;49.408;2023-02-28T07:53:03;1.22;61.83
67133;HTU21D;54052;53.542;49.408;2023-02-28T07:55:30;1.11;60.44
67133;HTU21D;54052;53.542;49.408;2023-02-28T07:57:57;1.04;60.69
67133;HTU21D;54052;53.542;49.408;2023-02-28T08:00:23;0.99;63.08
67133;HTU21D;54052;53.542;49.408;2023-02-28T08:02:49;1.14;61.74
67133;HTU21D;54052;53.542;49.408;2023-02-28T08:05:16;1.03;61.59
67133;HTU21D;54052;53.542;49.408;2023-02-28T08:07:42;0.95;60.75
67133;HTU21D;54052;53.542;49.408;2023-02-28T08:10:08;0.55;61.72
67133;HTU21D;54052;53.542;49.408;2023-02-28T08:12:36;0.42;63.34
67133;HTU21D;54052;53.542;49.408;2023-02-28T08:15:02;0.58;64.65
67133;HTU21D;54052;53.542;49.408;2023-02-28T08:17:28;0.64;64.13
67133;HTU21D;54052;53.542;49.408;2023-02-28T08:19:54;0.80;62.45
67133;HTU21D;54052;53.542;49.408;2023-02-28T08:22:20;0.89;62.32
67133;HTU21D;54052;53.542;49.408;2023-02-28T08:24:46;0.93;62.97
67133;HTU21D;54052;53.542;49.408;2023-02-28T08:27:13;1.08;62.15
67133;HTU21D;54052;53.542;49.408;2023-02-28T08:29:39;1.02;62.60
67133;HTU21D;54052;53.542;49.408;2023-02-28T08:32:06;1.05;62.48
67133;HTU21D;54052;53.542;49.408;2023-02-28T08:34:32;0.82;61.73
67133;HTU21D;54052;53.542;49.408;2023-02-28T08:36:58;0.92;60.23
67133;HTU21D;54052;53.542;49.408;2023-02-28T08:39:25;1.03;62.16
67133;HTU21D;54052;53.542;49.408;2023-02-28T08:41:51;1.24;61.44
67133;HTU21D;54052;53.542;49.408;2023-02-28T08:44:17;1.37;61.30
67133;HTU21D;54052;53.542;49.408;2023-02-28T08:46:43;1.28;62.43
67133;HTU21D;54052;53.542;49.408;2023-02-28T08:49:10;1.20;63.08
67133;HTU21D;54052;53.542;49.408;2023-02-28T08:51:36;1.06;61.69
67133;HTU21D;54052;53.542;49.408;2023-02-28T08:54:04;1.01;61.31
67133;HTU21D;54052;53.542;49.408;2023-02-28T08:56:30;0.82;63.78
67133;HTU21D;54052;53.542;49.408;2023-02-28T08:58:56;0.91;61.57
67133;HTU21D;54052;53.542;49.408;2023-02-28T09:01:28;0.74;61.03
67133;HTU21D;54052;53.542;49.408;2023-02-28T09:03:55;0.67;61.71
67133;HTU21D;54052;53.542;49.408;2023-02-28T09:06:24;0.81;64.20
67133;HTU21D;54052;53.542;49.408;2023-02-28T09:08:50;0.92;61.25
67133;HTU21D;54052;53.542;49.408;2023-02-28T09:11:17;0.98;62.47
67133;HTU21D;54052;53.542;49.408;2023-02-28T09:13:45;0.97;62.21
67133;HTU21D;54052;53.542;49.408;2023-02-28T09:16:14;1.08;62.55
67133;HTU21D;54052;53.542;49.408;2023-02-28T09:18:42;0.86;61.56
67133;HTU21D;54052;53.542;49.408;2023-02-28T09:21:11;0.72;63.16
67133;HTU21D;54052;53.542;49.408;2023-02-28T09:23:41;0.72;62.41
67133;HTU21D;54052;53.542;49.408;2023-02-28T09:26:08;0.62;62.95
67133;HTU21D;54052;53.542;49.408;2023-02-28T09:28:34;0.73;63.31
67133;HTU21D;54052;53.542;49.408;2023-02-28T09:31:00;0.61;62.05
67133;HTU21D;54052;53.542;49.408;2023-02-28T09:33:26;0.40;61.92
67133;HTU21D;54052;53.542;49.408;2023-02-28T09:35:59;0.31;62.79
67133;HTU21D;54052;53.542;49.408;2023-02-28T09:38:26;0.38;64.18
67133;HTU21D;54052;53.542;49.408;2023-02-28T09:40:59;0.35;64.01
67133;HTU21D;54052;53.542;49.408;2023-02-28T09:43:30;0.20;64.21
67133;HTU21D;54052;53.542;49.408;2023-02-28T09:48:41;0.22;61.91
67133;HTU21D;54052;53.542;49.408;2023-02-28T09:54:20;0.36;62.70
67133;HTU21D;54052;53.542;49.408;2023-02-28T09:56:50;0.38;63.21
67133;HTU21D;54052;53.542;49.408;2023-02-28T09:59:52;0.43;63.40
67133;HTU21D;54052;53.542;49.408;2023-02-28T10:05:19;0.21;63.31
67133;HTU21D;54052;53.542;49.408;2023-02-28T10:10:29;0.45;63.30
67133;HTU21D;54052;53.542;49.408;2023-02-28T10:12:59;0.46;63.73
67133;HTU21D;54052;53.542;49.408;2023-02-28T10:15:29;0.57;63.56
67133;HTU21D;54052;53.542;49.408;2023-02-28T10:18:04;0.57;62.78
67133;HTU21D;54052;53.542;49.408;2023-02-28T10:20:35;0.42;63.47
67133;HTU21D;54052;53.542;49.408;2023-02-28T10:23:15;0.29;63.48
67133;HTU21D;54052;53.542;49.408;2023-02-28T10:26:00;0.31;64.07
67133;HTU21D;54052;53.542;49.408;2023-02-28T10:28:28;0.42;63.69
67133;HTU21D;54052;53.542;49.408;2023-02-28T10:30:56;0.42;64.72
67133;HTU21D;54052;53.542;49.408;2023-02-28T10:33:43;0.49;66.01
67133;HTU21D;54052;53.542;49.408;2023-02-28T10:36:16;0.49;65.89
67133;HTU21D;54052;53.542;49.408;2023-02-28T10:38:44;0.42;66.25
67133;HTU21D;54052;53.542;49.408;2023-02-28T10:43:39;0.31;66.45
67133;HTU21D;54052;53.542;49.408;2023-02-28T10:48:45;0.52;66.01
67133;HTU21D;54052;53.542;49.408;2023-02-28T10:51:16;0.73;64.17
67133;HTU21D;54052;53.542;49.408;2023-02-28T10:53:50;0.51;65.83
67133;HTU21D;54052;53.542;49.408;2023-02-28T10:56:19;0.47;64.99
67133;HTU21D;54052;53.542;49.408;2023-02-28T10:58:59;0.48;65.37
67133;HTU21D;54052;53.542;49.408;2023-02-28T11:04:01;0.50;65.72
67133;HTU21D;54052;53.542;49.408;2023-02-28T11:06:31;0.65;64.82
67133;HTU21D;54052;53.542;49.408;2023-02-28T11:09:22;0.62;64.20
67133;HTU21D;54052;53.542;49.408;2023-02-28T11:11:47;0.72;64.63
67133;HTU21D;54052;53.542;49.408;2023-02-28T11:14:20;0.88;64.75
67133;HTU21D;54052;53.542;49.408;2023-02-28T11:16:53;0.79;64.76
67133;HTU21D;54052;53.542;49.408;2023-02-28T11:19:25;0.78;65.89
67133;HTU21D;54052;53.542;49.408;2023-02-28T11:22:00;0.73;63.96
67133;HTU21D;54052;53.542;49.408;2023-02-28T11:24:36;0.68;65.27
67133;HTU21D;54052;53.542;49.408;2023-02-28T11:27:03;0.48;64.53
67133;HTU21D;54052;53.542;49.408;2023-02-28T11:29:32;0.44;65.48
67133;HTU21D;54052;53.542;49.408;2023-02-28T11:34:32;0.43;66.49
67133;HTU21D;54052;53.542;49.408;2023-02-28T11:36:59;0.39;64.89
67133;HTU21D;54052;53.542;49.408;2023-02-28T11:39:27;0.48;65.67
67133;HTU21D;54052;53.542;49.408;2023-02-28T12:01:37;0.44;66.62
67133;HTU21D;54052;53.542;49.408;2023-02-28T12:07:42;0.35;66.22
67133;HTU21D;54052;53.542;49.408;2023-02-28T12:10:20;0.38;66.34
67133;HTU21D;54052;53.542;49.408;2023-02-28T12:16:08;0.44;67.19
67133;HTU21D;54052;53.542;49.408;2023-02-28T12:26:58;0.30;66.40
67133;HTU21D;54052;53.542;49.408;2023-02-28T12:32:30;0.25;65.42
67133;HTU21D;54052;53.542;49.408;2023-02-28T12:35:06;0.21;65.78
67133;HTU21D;54052;53.542;49.408;2023-02-28T12:37:46;0.19;66.65
67133;HTU21D;54052;53.542;49.408;2023-02-28T12:40:23;0.27;66.73
67133;HTU21D;54052;53.542;49.408;2023-02-28T12:42:53;0.29;66.94
67133;HTU21D;54052;53.542;49.408;2023-02-28T12:45:23;0.31;66.71
67133;HTU21D;54052;53.542;49.408;2023-02-28T12:48:00;0.32;65.60
67133;HTU21D;54052;53.542;49.408;2023-02-28T12:50:32;0.22;64.34
67133;HTU21D;54052;53.542;49.408;2023-02-28T12:58:55;0.40;64.82
67133;HTU21D;54052;53.542;49.408;2023-02-28T13:07:35;-0.03;66.99
67133;HTU21D;54052;53.542;49.408;2023-02-28T13:10:06;-0.20;67.52
67133;HTU21D;54052;53.542;49.408;2023-02-28T13:12:34;-0.17;68.02
67133;HTU21D;54052;53.542;49.408;2023-02-28T13:15:26;-0.20;68.00
67133;HTU21D;54052;53.542;49.408;2023-02-28T13:17:59;-0.25;69.05
67133;HTU21D;54052;53.542;49.408;2023-02-28T13:20:35;-0.30;70.10
67133;HTU21D;54052;53.542;49.408;2023-02-28T13:23:02;-0.38;69.02
67133;HTU21D;54052;53.542;49.408;2023-02-28T13:28:09;-0.43;68.89
67133;HTU21D;54052;53.542;49.408;2023-02-28T13:36:22;-0.50;70.30
67133;HTU21D;54052;53.542;49.408;2023-02-28T13:38:54;-0.52;70.30
67133;HTU21D;54052;53.542;49.408;2023-02-28T13:44:21;-0.68;69.58
67133;HTU21D;54052;53.542;49.408;2023-02-28T13:49:27;-0.80;71.07
67133;HTU21D;54052;53.542;49.408;2023-02-28T14:05:20;-1.31;74.41
67133;HTU21D;54052;53.542;49.408;2023-02-28T14:07:55;-1.40;75.12
67133;HTU21D;54052;53.542;49.408;2023-02-28T14:10:37;-1.55;76.10
67133;HTU21D;54052;53.542;49.408;2023-02-28T14:13:40;-1.58;75.85
67133;HTU21D;54052;53.542;49.408;2023-02-28T14:16:21;-1.52;76.33
67133;HTU21D;54052;53.542;49.408;2023-02-28T14:19:17;-1.53;76.09
67133;HTU21D;54052;53.542;49.408;2023-02-28T14:30:37;-1.63;76.61
67133;HTU21D;54052;53.542;49.408;2023-02-28T14:36:20;-1.78;76.44
67133;HTU21D;54052;53.542;49.408;2023-02-28T14:39:06;-1.85;76.77
67133;HTU21D;54052;53.542;49.408;2023-02-28T14:41:38;-1.87;77.02
67133;HTU21D;54052;53.542;49.408;2023-02-28T14:44:20;-1.83;76.72
67133;HTU21D;54052;53.542;49.408;2023-02-28T14:46:50;-1.92;76.98
67133;HTU21D;54052;53.542;49.408;2023-02-28T14:49:18;-2.00;77.02
67133;HTU21D;54052;53.542;49.408;2023-02-28T14:51:44;-2.06;77.10
67133;HTU21D;54052;53.542;49.408;2023-02-28T14:54:16;-2.10;77.30
67133;HTU21D;54052;53.542;49.408;2023-02-28T14:56:50;-2.03;76.66
67133;HTU21D;54052;53.542;49.408;2023-02-28T15:01:50;-1.98;75.95
67133;HTU21D;54052;53.542;49.408;2023-02-28T15:04:25;-2.09;76.20
67133;HTU21D;54052;53.542;49.408;2023-02-28T15:07:13;-2.05;77.05
67133;HTU21D;54052;53.542;49.408;2023-02-28T15:09:42;-2.03;77.24
67133;HTU21D;54052;53.542;49.408;2023-02-28T15:12:14;-2.12;75.86
67133;HTU21D;54052;53.542;49.408;2023-02-28T15:14:46;-2.20;76.46
67133;HTU21D;54052;53.542;49.408;2023-02-28T15:17:23;-2.21;76.24
67133;HTU21D;54052;53.542;49.408;2023-02-28T15:20:00;-2.29;76.50
67133;HTU21D;54052;53.542;49.408;2023-02-28T15:22:31;-2.31;76.92
67133;HTU21D;54052;53.542;49.408;2023-02-28T15:25:02;-2.37;77.13
67133;HTU21D;54052;53.542;49.408;2023-02-28T15:27:33;-2.29;77.01
67133;HTU21D;54052;53.542;49.408;2023-02-28T15:30:05;-2.32;77.37
67133;HTU21D;54052;53.542;49.408;2023-02-28T15:32:37;-2.29;76.66
67133;HTU21D;54052;53.542;49.408;2023-02-28T15:35:27;-2.35;75.92
67133;HTU21D;54052;53.542;49.408;2023-02-28T15:37:58;-2.37;76.85
67133;HTU21D;54052;53.542;49.408;2023-02-28T15:40:37;-2.42;76.34
67133;HTU21D;54052;53.542;49.408;2023-02-28T15:43:12;-2.45;77.00
67133;HTU21D;54052;53.542;49.408;2023-02-28T15:45:46;-2.39;76.79
67133;HTU21D;54052;53.542;49.408;2023-02-28T15:48:21;-2.52;76.27
67133;HTU21D;54052;53.542;49.408;2023-02-28T15:50:56;-2.63;77.45
67133;HTU21D;54052;53.542;49.408;2023-02-28T15:53:57;-2.71;76.59
67133;HTU21D;54052;53.542;49.408;2023-02-28T15:56:27;-2.77;77.10
67133;HTU21D;54052;53.542;49.408;2023-02-28T15:58:56;-2.82;77.07
67133;HTU21D;54052;53.542;49.408;2023-02-28T16:01:28;-2.79;76.46
67133;HTU21D;54052;53.542;49.408;2023-02-28T16:03:59;-2.76;76.50
67133;HTU21D;54052;53.542;49.408;2023-02-28T16:06:39;-2.72;76.06
67133;HTU21D;54052;53.542;49.408;2023-02-28T16:09:15;-2.74;75.64
67133;HTU21D;54052;53.542;49.408;2023-02-28T16:11:47;-2.75;75.73
67133;HTU21D;54052;53.542;49.408;2023-02-28T16:14:31;-2.77;76.34
67133;HTU21D;54052;53.542;49.408;2023-02-28T16:17:13;-2.77;75.75
67133;HTU21D;54052;53.542;49.408;2023-02-28T16:19:42;-2.83;76.31
67133;HTU21D;54052;53.542;49.408;2023-02-28T16:22:09;-2.81;76.86
67133;HTU21D;54052;53.542;49.408;2023-02-28T16:24:36;-2.78;76.91
67133;HTU21D;54052;53.542;49.408;2023-02-28T16:27:04;-2.81;76.24
67133;HTU21D;54052;53.542;49.408;2023-02-28T16:29:33;-2.82;75.75
67133;HTU21D;54052;53.542;49.408;2023-02-28T16:32:04;-2.81;75.74
67133;HTU21D;54052;53.542;49.408;2023-02-28T16:34:30;-2.78;75.66
67133;HTU21D;54052;53.542;49.408;2023-02-28T16:36:56;-2.81;75.67
67133;HTU21D;54052;53.542;49.408;2023-02-28T16:39:23;-2.83;75.41
67133;HTU21D;54052;53.542;49.408;2023-02-28T16:41:50;-2.84;75.58
67133;HTU21D;54052;53.542;49.408;2023-02-28T16:44:38;-2.92;76.12
67133;HTU21D;54052;53.542;49.408;2023-02-28T16:47:05;-2.96;76.61
67133;HTU21D;54052;53.542;49.408;2023-02-28T16:49:32;-2.95;76.12
67133;HTU21D;54052;53.542;49.408;2023-02-28T16:51:58;-2.96;76.20
67133;HTU21D;54052;53.542;49.408;2023-02-28T16:54:23;-2.91;75.24
67133;HTU21D;54052;53.542;49.408;2023-02-28T16:56:50;-2.90;75.14
67133;HTU21D;54052;53.542;49.408;2023-02-28T16:59:21;-2.83;74.48
67133;HTU21D;54052;53.542;49.408;2023-02-28T17:01:48;-2.84;74.15
67133;HTU21D;54052;53.542;49.408;2023-02-28T17:04:15;-2.86;73.96
67133;HTU21D;54052;53.542;49.408;2023-02-28T17:06:41;-2.77;73.79
67133;HTU21D;54052;53.542;49.408;2023-02-28T17:09:16;-2.68;73.51
67133;HTU21D;54052;53.542;49.408;2023-02-28T17:11:43;-2.65;72.94
67133;HTU21D;54052;53.542;49.408;2023-02-28T17:14:11;-2.61;72.37
67133;HTU21D;54052;53.542;49.408;2023-02-28T17:16:38;-2.52;73.34
67133;HTU21D;54052;53.542;49.408;2023-02-28T17:19:13;-2.52;72.74
67133;HTU21D;54052;53.542;49.408;2023-02-28T17:21:41;-2.48;71.94
67133;HTU21D;54052;53.542;49.408;2023-02-28T17:24:08;-2.53;72.24
67133;HTU21D;54052;53.542;49.408;2023-02-28T17:26:34;-2.54;72.45
67133;HTU21D;54052;53.542;49.408;2023-02-28T17:29:00;-2.57;72.47
67133;HTU21D;54052;53.542;49.408;2023-02-28T17:31:27;-2.49;72.32
67133;HTU21D;54052;53.542;49.408;2023-02-28T17:33:53;-2.48;72.39
67133;HTU21D;54052;53.542;49.408;2023-02-28T17:36:26;-2.45;72.64
67133;HTU21D;54052;53.542;49.408;2023-02-28T17:38:53;-2.45;71.84
67133;HTU21D;54052;53.542;49.408;2023-02-28T17:41:21;-2.44;71.87
67133;HTU21D;54052;53.542;49.408;2023-02-28T17:43:48;-2.43;72.29
67133;HTU21D;54052;53.542;49.408;2023-02-28T17:46:21;-2.46;71.57
67133;HTU21D;54052;53.542;49.408;2023-02-28T17:48:48;-2.48;72.08
67133;HTU21D;54052;53.542;49.408;2023-02-28T17:51:15;-2.44;71.71